VCBI/CMB METAR and TAF weather

Enter ICAO airport designator
Station Type Date Time Source
VCBI METAR 2019/04/24 22:10 UTC NOAA

VCBI 242210Z 11002KT 9999 FEW018 28/24 Q1007 NOSIG


Station Type Date Time Source
VCBI Decoded METAR 2019/04/24 22:10 UTC NOAA

Katunayake, Sri Lanka (VCBI) 07-10N 079-53E 8M
Apr 24, 2019 - 06:10 PM EDT / 2019.04.24 2210 UTC
Wind: from the ESE (110 degrees) at 2 MPH (2 KT):0
Visibility: greater than 7 mile(s):0
Sky conditions: mostly clear
Temperature: 82 F (28 C)
Dew Point: 75 F (24 C)
Relative Humidity: 78%
Pressure (altimeter): 29.74 in. Hg (1007 hPa)
ob: VCBI 242210Z 11002KT 9999 FEW018 28/24 Q1007 NOSIG
cycle: 22

Station Type Date Time Source
VCBI TAF 2019/04/24 18:03 UTC NOAA

TAF TAF VCBI 241700Z 2418/2524 VRB05KT 9999 FEW016 TX33/2507Z TN26/2500Z
BECMG 2504/2506 27008KT PROB40
TEMPO 2510/2516 6000 -TSRA/SHRA SCT016 FEW020CB
BECMG 2512/2514 VRB05KT

Example: see airport list